• Join FlightAware (Why Join?)
  • Login
  • US Flag 
08:38PM EDT


 

Airport Tracker/Info


-or-


 

Live Flight TrackerFlight Track Log ✈ SKW6345 ✈ 06-May-2013 ✈ KCOD - KDEN

Flight Track Log - Related Links

Times and Time Zones

All times are in EDT time to prevent confusion due to time zone crossing. See the SKW6345 flight status page for this flight to view local times or setup timezone preferences in your user account.

Time Position Orientation Groundspeed Altitude Reporting Facility
EDT Latitude Longitude Course Direction KTS MPH feet Rate Location/Type
09:27AM 44.4539 -109.0683 157° South 221 254 8,600  Level Salt Lake Center
09:29AM 44.0579 -108.6330 159° South  Level FlightAware Approximate
09:29AM 44.5681 -108.9326 159° South  Level FlightAware Approximate
09:30AM 43.9627 -108.5810 157° South  Level FlightAware Approximate
09:31AM 43.8685 -108.5260 157° South  Level FlightAware Approximate
09:32AM 43.7743 -108.4711 157° South  Level FlightAware Approximate
09:32AM 44.3414 -108.8039 157° South 347 399 18,200  Level Salt Lake Center
09:33AM 44.2528 -108.7528 158° South 359 413 19,800 1,560 Climbing Salt Lake Center
09:35AM 44.1149 -108.6641 159° South  Level FlightAware Approximate
09:35AM 44.0550 -108.6389 159° South 371 427 23,000  Level Salt Lake Center
09:36AM 43.9078 -108.5489 157° South  Level FlightAware Approximate
09:36AM 43.9617 -108.5856 158° South 378 435 24,300  Level Salt Lake Center
09:37AM 43.8135 -108.4939 157° South  Level FlightAware Approximate
09:37AM 43.8661 -108.5317 158° South 387 445 25,300  Level Salt Lake Center
09:39AM 43.7344 -108.4482 157° South  Level FlightAware Approximate
09:39AM 43.6519 -108.4103 157° South 403 464 27,000  Level Salt Lake Center
09:40AM 43.5386 -108.3450 157° South 396 456 27,000  Level Salt Lake Center
09:41AM 43.4500 -108.2903 156° South 370 426 27,000  Level Salt Lake Center
09:42AM 43.3778 -108.2106 141° Southeast 349 402 27,000  Level Salt Lake Center
09:43AM 43.2964 -108.1250 143° Southeast 334 384 27,000  Level Salt Lake Center
09:45AM 43.1947 -108.0150 142° Southeast 325 374 27,000  Level Denver Center
09:46AM 43.0794 -107.8972 143° Southeast 325 374 27,000  Level Salt Lake Center
09:47AM 43.0092 -107.8200 141° Southeast 326 375 27,000  Level Salt Lake Center
09:48AM 42.9319 -107.7417 143° Southeast 321 369 27,000  Level Salt Lake Center
09:49AM 42.8617 -107.6664 142° Southeast 321 369 27,000  Level Salt Lake Center
09:51AM 42.7261 -107.5250 143° Southeast 321 369 27,000  Level Salt Lake Center
09:53AM 42.5992 -107.3919 142° Southeast 328 377 27,000  Level Denver Center
09:55AM 42.4575 -107.2489 143° Southeast 330 380 27,000  Level Denver Center
09:56AM 42.3619 -107.1500 143° Southeast 338 389 27,000  Level Denver Center
09:57AM 42.2789 -107.0664 143° Southeast 334 384 27,000  Level Denver Center
10:00AM 42.1233 -106.9083 143° Southeast 337 388 27,000  Level Salt Lake Center
10:00AM 42.0539 -106.8372 143° Southeast 331 381 27,000  Level Denver Center
10:01AM 41.9825 -106.7669 144° Southeast 332 382 27,000  Level Denver Center
10:02AM 41.9014 -106.6839 143° Southeast 329 379 27,000  Level Denver Center
10:05AM 41.7531 -106.5310 142° Southeast  Level FlightAware Approximate
10:05AM 41.6311 -106.4050 142° Southeast 431 496 27,000  Level Denver Center
10:07AM 41.5383 -106.3083 142° Southeast 442 509 27,000  Level Denver Center
10:08AM 41.4458 -106.2111 142° Southeast 443 510 27,000  Level Denver Center
10:10AM 41.2481 -106.0067 142° Southeast 436 502 27,000 -540 Level Denver Center
10:12AM 41.0486 -105.8014 142° Southeast 437 503 24,800 -1,140 Descending Denver Center
10:13AM 40.9522 -105.7050 143° Southeast 421 484 23,500 -1,200 Descending Denver Center
10:14AM 40.8639 -105.6158 143° Southeast 399 459 22,400 -1,140 Descending Denver Center
10:15AM 40.7792 -105.5281 142° Southeast 387 445 21,200 -1,020 Descending Denver Center
10:16AM 40.6956 -105.4422 142° Southeast 377 434 20,100 -1,140 Descending Denver Center
10:17AM 40.5922 -105.3389 143° Southeast 346 398 18,700 -1,080 Descending Denver Center
10:18AM 40.5106 -105.2586 143° Southeast 360 414 17,700 -1,380 Descending Denver Center
10:20AM 40.4561 -105.1183 114° Southeast  Level FlightAware Approximate
10:21AM 40.3033 -104.9606 169° South 330 380 13,000  Level Denver Center
10:23AM 40.2333 -104.8333 126° Southeast 262 302 12,000 -900 Descending Denver TRACON
10:23AM 40.2089 -104.8233 163° South 256 295 11,200 -1,380 Descending Denver Center
10:25AM 40.1167 -104.7667 155° Southeast 247 284 9,300 -1,080 Descending Denver TRACON
10:26AM 40.0500 -104.7333 159° South 216 249 8,600 -960 Descending Denver TRACON
10:27AM 39.9991 -104.6873 169° South  Level FlightAware Approximate
10:27AM 40.0000 -104.7167 166° South 193 222 7,500  Level Denver TRACON
10:27AM 39.9706 -104.6964 152° Southeast 183 211 6,900 -900 Descending Denver Center